createdAt,value
2023-03-05T00:00:56.744Z,21.55
2023-03-05T00:04:00.581Z,24.80
2023-03-05T00:07:03.536Z,21.55
2023-03-05T00:10:07.285Z,23.57
2023-03-05T00:13:10.162Z,19.07
2023-03-05T00:16:15.542Z,27.08
2023-03-05T00:19:18.298Z,21.88
2023-03-05T00:22:21.334Z,20.08
2023-03-05T00:25:24.098Z,23.50
2023-03-05T00:28:26.968Z,24.47
2023-03-05T00:31:32.000Z,21.83
2023-03-05T00:34:36.472Z,23.33
2023-03-05T00:37:39.478Z,21.67
2023-03-05T00:40:42.391Z,21.93
2023-03-05T00:43:45.504Z,25.33
2023-03-05T00:46:48.847Z,24.77
2023-03-05T00:49:51.993Z,26.50
2023-03-05T00:52:54.865Z,28.13
2023-03-05T00:55:59.628Z,28.57
2023-03-05T00:59:02.478Z,22.87
2023-03-05T01:02:05.387Z,27.73
2023-03-05T01:05:11.337Z,20.55
2023-03-05T01:08:14.349Z,24.17
2023-03-05T01:11:17.256Z,23.63
2023-03-05T01:14:21.237Z,24.73
2023-03-05T01:17:24.016Z,25.30
2023-03-05T01:20:26.813Z,24.70
2023-03-05T01:23:29.635Z,19.50
2023-03-05T01:26:32.673Z,27.80
2023-03-05T01:29:37.386Z,25.03
2023-03-05T01:32:40.293Z,22.92
2023-03-05T01:35:45.862Z,20.90
2023-03-05T01:38:49.474Z,25.52
2023-03-05T01:41:52.405Z,22.33
2023-03-05T01:45:10.346Z,18.50
2023-03-05T01:48:13.129Z,22.45
2023-03-05T01:51:18.974Z,22.70
2023-03-05T01:54:25.432Z,20.38
2023-03-05T01:57:38.517Z,23.93
2023-03-05T02:00:47.131Z,20.17
2023-03-05T02:03:50.129Z,19.23
2023-03-05T02:06:53.652Z,19.48
2023-03-05T02:09:56.380Z,23.60
2023-03-05T02:13:02.401Z,22.70
2023-03-05T02:16:05.596Z,23.83
2023-03-05T02:19:10.867Z,22.50
2023-03-05T02:22:22.386Z,19.33
2023-03-05T02:25:29.027Z,19.85
2023-03-05T02:28:42.757Z,19.20
2023-03-05T02:31:45.997Z,21.50
2023-03-05T02:34:48.843Z,19.92
2023-03-05T02:37:51.680Z,15.82
2023-03-05T02:40:54.504Z,15.05
2023-03-05T02:43:57.420Z,14.87
2023-03-05T02:47:01.018Z,17.77
2023-03-05T02:50:05.143Z,16.90
2023-03-05T02:53:08.239Z,14.20
2023-03-05T02:56:11.148Z,12.60
2023-03-05T02:59:13.980Z,13.67
2023-03-05T03:02:17.968Z,14.93
2023-03-05T03:05:20.623Z,17.23
2023-03-05T03:08:23.336Z,16.02
2023-03-05T03:11:26.317Z,17.83
2023-03-05T03:14:32.960Z,14.67
2023-03-05T03:17:36.962Z,17.73
2023-03-05T03:20:39.960Z,14.77
2023-03-05T03:23:42.731Z,18.38
2023-03-05T03:26:45.376Z,22.05
2023-03-05T03:29:48.124Z,15.03
2023-03-05T03:32:52.532Z,16.50
2023-03-05T03:35:55.334Z,14.23
2023-03-05T03:38:58.228Z,17.20
2023-03-05T03:42:01.038Z,17.38
2023-03-05T03:45:04.352Z,14.63
2023-03-05T03:48:07.073Z,15.80
2023-03-05T03:51:09.948Z,14.23
2023-03-05T03:54:13.918Z,14.68
2023-03-05T03:57:16.584Z,12.32
2023-03-05T04:00:19.706Z,17.10
2023-03-05T04:03:22.416Z,13.50
2023-03-05T04:06:25.591Z,17.45
2023-03-05T04:09:28.399Z,13.30
2023-03-05T04:12:31.106Z,14.32
2023-03-05T04:15:34.373Z,10.83
2023-03-05T04:18:37.113Z,13.27
2023-03-05T04:21:40.369Z,12.63
2023-03-05T04:24:43.427Z,11.50
2023-03-05T04:27:46.171Z,13.20
2023-03-05T04:30:49.056Z,15.13
2023-03-05T04:33:52.017Z,9.63
2023-03-05T04:36:54.817Z,10.98
2023-03-05T04:39:57.596Z,11.45
2023-03-05T04:43:00.481Z,12.93
2023-03-05T04:46:03.466Z,13.93
2023-03-05T04:49:06.492Z,14.17
2023-03-05T04:52:11.460Z,11.35
2023-03-05T04:55:15.609Z,9.23
2023-03-05T04:58:18.365Z,12.48
2023-03-05T05:01:21.479Z,11.20
2023-03-05T05:04:24.666Z,15.33
2023-03-05T05:07:27.535Z,11.20
2023-03-05T05:10:31.696Z,10.35
2023-03-05T05:13:35.533Z,12.50
2023-03-05T05:16:38.254Z,10.90
2023-03-05T05:19:41.101Z,16.10
2023-03-05T05:22:44.183Z,19.85
2023-03-05T05:25:47.071Z,18.25
2023-03-05T05:28:49.925Z,22.20
2023-03-05T05:31:54.316Z,21.40
2023-03-05T05:34:58.720Z,14.87
2023-03-05T05:38:01.461Z,17.58
2023-03-05T05:41:07.985Z,14.77
2023-03-05T05:44:11.112Z,13.70
2023-03-05T05:47:15.658Z,19.77
2023-03-05T05:50:20.418Z,22.10
2023-03-05T05:53:23.742Z,27.15
2023-03-05T05:56:26.511Z,33.45
2023-03-05T05:59:29.291Z,19.05
2023-03-05T06:02:32.048Z,18.10
2023-03-05T06:05:35.415Z,15.83
2023-03-05T06:08:38.866Z,20.83
2023-03-05T06:11:41.636Z,21.77
2023-03-05T06:14:44.365Z,22.00
2023-03-05T06:17:48.082Z,23.87
2023-03-05T06:21:05.537Z,26.37
2023-03-05T06:24:08.428Z,28.02
2023-03-05T06:27:11.188Z,17.63
2023-03-05T06:30:14.249Z,18.00
2023-03-05T06:33:17.806Z,16.77
2023-03-05T06:36:22.311Z,17.93
2023-03-05T06:39:25.180Z,24.63
2023-03-05T06:42:27.982Z,17.33
2023-03-05T06:45:30.830Z,15.23
2023-03-05T06:48:34.061Z,17.43
2023-03-05T06:51:39.302Z,15.63
2023-03-05T06:54:42.173Z,15.20
2023-03-05T06:57:45.282Z,20.08
2023-03-05T07:00:48.287Z,17.98
2023-03-05T07:03:55.513Z,15.23
2023-03-05T07:06:59.454Z,15.43
2023-03-05T07:10:02.513Z,12.15
2023-03-05T07:13:05.215Z,11.70
2023-03-05T07:16:10.617Z,12.57
2023-03-05T07:19:14.108Z,13.87
2023-03-05T07:22:17.102Z,11.23
2023-03-05T07:25:21.737Z,11.77
2023-03-05T07:28:25.185Z,10.93
2023-03-05T07:31:31.171Z,8.88
2023-03-05T07:34:34.080Z,9.38
2023-03-05T07:37:36.858Z,9.40
2023-03-05T07:40:39.669Z,11.60
2023-03-05T07:43:43.067Z,9.52
2023-03-05T07:46:45.929Z,13.73
2023-03-05T07:49:48.708Z,9.20
2023-03-05T07:52:51.617Z,13.93
2023-03-05T07:55:54.553Z,13.77
2023-03-05T07:59:00.665Z,13.50
2023-03-05T08:02:03.507Z,10.55
2023-03-05T08:05:06.719Z,11.70
2023-03-05T08:08:11.488Z,12.50
2023-03-05T08:11:16.404Z,13.93
2023-03-05T08:14:19.204Z,13.10
2023-03-05T08:17:21.954Z,15.23
2023-03-05T08:20:24.800Z,11.37
2023-03-05T08:23:28.538Z,10.33
2023-03-05T08:26:33.450Z,9.35
2023-03-05T08:29:36.278Z,15.68
2023-03-05T08:32:39.573Z,15.13
2023-03-05T08:35:42.471Z,13.30
2023-03-05T08:38:46.877Z,16.97
2023-03-05T08:41:49.583Z,15.00
2023-03-05T08:44:52.353Z,12.70
2023-03-05T08:47:57.477Z,18.55
2023-03-05T08:51:15.554Z,15.23
2023-03-05T08:54:18.369Z,13.57
2023-03-05T08:57:21.128Z,12.93
2023-03-05T09:00:24.038Z,11.07
2023-03-05T09:03:27.368Z,13.38
2023-03-05T09:06:30.205Z,10.88
2023-03-05T09:09:33.228Z,9.87
2023-03-05T09:12:36.016Z,9.90
2023-03-05T09:15:39.565Z,10.15
2023-03-05T09:18:43.118Z,9.20
2023-03-05T09:21:45.864Z,10.55
2023-03-05T09:24:48.697Z,11.37
2023-03-05T09:27:51.412Z,10.65
2023-03-05T09:30:55.370Z,14.45
2023-03-05T09:33:58.187Z,11.90
2023-03-05T09:37:00.977Z,13.97
2023-03-05T09:40:04.308Z,10.50
2023-03-05T09:43:19.626Z,9.48
2023-03-05T09:46:56.594Z,10.98
2023-03-05T09:50:32.673Z,12.25
2023-03-05T09:53:51.103Z,8.47
2023-03-05T09:56:59.063Z,12.60
2023-03-05T10:00:08.974Z,13.75
2023-03-05T10:03:44.658Z,8.55
2023-03-05T10:07:00.818Z,6.93
2023-03-05T10:10:26.393Z,8.93
2023-03-05T10:13:41.165Z,7.20
2023-03-05T10:17:01.609Z,6.20
2023-03-05T10:20:19.252Z,6.43
2023-03-05T10:23:37.282Z,6.72
2023-03-05T10:27:07.842Z,7.20
2023-03-05T10:30:25.710Z,6.53
2023-03-05T10:33:53.076Z,9.25
2023-03-05T10:37:08.372Z,7.63
2023-03-05T10:40:17.026Z,6.75
2023-03-05T10:43:25.746Z,8.85
2023-03-05T10:46:35.599Z,7.83
2023-03-05T10:49:52.208Z,5.78
2023-03-05T10:53:14.102Z,5.82
2023-03-05T10:56:21.959Z,5.10
2023-03-05T10:59:24.836Z,6.70
2023-03-05T11:02:27.730Z,6.70
2023-03-05T11:05:40.313Z,6.15
2023-03-05T11:08:43.132Z,6.30
2023-03-05T11:12:14.147Z,8.18
2023-03-05T11:15:17.095Z,7.53
2023-03-05T11:18:23.209Z,9.07
2023-03-05T11:21:28.526Z,7.10
2023-03-05T11:24:31.203Z,7.28
2023-03-05T11:27:33.830Z,10.23
2023-03-05T11:30:37.827Z,7.38
2023-03-05T11:33:53.630Z,6.97
2023-03-05T11:36:57.085Z,8.27
2023-03-05T11:40:15.775Z,7.07
2023-03-05T11:43:21.933Z,7.32
2023-03-05T11:46:25.935Z,6.47
2023-03-05T11:49:34.131Z,6.43
2023-03-05T11:53:09.992Z,9.93
2023-03-05T11:56:28.259Z,7.70
2023-03-05T11:59:35.921Z,5.85
2023-03-05T12:02:39.303Z,7.50
2023-03-05T12:05:46.917Z,8.83
2023-03-05T12:08:55.100Z,8.10
2023-03-05T12:12:12.906Z,7.85
2023-03-05T12:15:18.686Z,7.28
2023-03-05T12:18:38.186Z,7.00
2023-03-05T12:21:43.318Z,7.40
2023-03-05T12:24:46.231Z,7.45
2023-03-05T12:27:49.189Z,6.70
2023-03-05T12:30:52.160Z,7.63
2023-03-05T12:33:55.040Z,5.97
2023-03-05T12:36:58.076Z,6.83
2023-03-05T12:40:21.198Z,10.80
2023-03-05T12:43:32.570Z,6.75
2023-03-05T12:46:39.955Z,6.47
2023-03-05T12:49:45.650Z,5.82
2023-03-05T12:52:48.690Z,6.60
2023-03-05T12:56:01.130Z,5.13
2023-03-05T12:59:04.609Z,7.65
2023-03-05T13:02:31.714Z,8.88
2023-03-05T13:05:39.353Z,10.55
2023-03-05T13:08:43.728Z,8.57
2023-03-05T13:11:49.995Z,6.80
2023-03-05T13:15:02.085Z,6.20
2023-03-05T13:18:08.648Z,6.60
2023-03-05T13:21:17.521Z,8.00
2023-03-05T13:24:20.386Z,9.57
2023-03-05T13:27:31.388Z,7.72
2023-03-05T13:30:34.849Z,7.97
2023-03-05T13:33:38.605Z,8.23
2023-03-05T13:36:47.510Z,8.48
2023-03-05T13:39:55.376Z,5.63
2023-03-05T13:43:20.853Z,9.63
2023-03-05T13:46:32.931Z,5.53
2023-03-05T13:49:36.133Z,6.13
2023-03-05T13:52:39.284Z,6.78
2023-03-05T13:55:42.557Z,5.00
2023-03-05T13:58:52.998Z,7.25
2023-03-05T14:01:58.653Z,6.85
2023-03-05T14:05:02.036Z,6.70
2023-03-05T14:08:04.997Z,5.78
2023-03-05T14:11:18.743Z,6.60
2023-03-05T14:14:23.531Z,6.88
2023-03-05T14:17:45.209Z,6.50
2023-03-05T14:21:08.983Z,8.15
2023-03-05T14:24:24.344Z,12.77
2023-03-05T14:27:31.802Z,7.80
2023-03-05T14:30:36.428Z,8.02
2023-03-05T14:33:40.876Z,6.47
2023-03-05T14:36:48.939Z,6.32
2023-03-05T14:39:55.264Z,8.60
2023-03-05T14:43:10.766Z,10.97
2023-03-05T14:46:13.941Z,7.28
2023-03-05T14:49:17.778Z,9.52
2023-03-05T14:52:24.013Z,11.45
2023-03-05T14:55:31.702Z,11.43
2023-03-05T14:58:35.717Z,13.40
2023-03-05T15:01:38.577Z,23.23
2023-03-05T15:04:41.847Z,15.30
2023-03-05T15:07:46.200Z,18.80
2023-03-05T15:10:52.038Z,13.77
2023-03-05T15:13:55.035Z,13.57
2023-03-05T15:16:58.216Z,12.57
2023-03-05T15:20:01.540Z,14.00
2023-03-05T15:23:04.566Z,14.30
2023-03-05T15:26:09.802Z,13.93
2023-03-05T15:29:12.843Z,12.00
2023-03-05T15:32:16.449Z,13.10
2023-03-05T15:35:20.033Z,15.98
2023-03-05T15:38:23.414Z,14.23
2023-03-05T15:41:26.345Z,14.97
2023-03-05T15:44:29.422Z,17.23
2023-03-05T15:47:33.515Z,18.00
2023-03-05T15:50:36.735Z,17.83
2023-03-05T15:53:39.909Z,17.55
2023-03-05T15:56:43.019Z,19.87
2023-03-05T15:59:46.074Z,14.97
2023-03-05T16:02:49.161Z,13.70
2023-03-05T16:05:52.326Z,19.58
2023-03-05T16:09:01.003Z,21.05
2023-03-05T16:12:08.919Z,24.00
2023-03-05T16:15:15.365Z,19.97
2023-03-05T16:18:19.174Z,20.67
2023-03-05T16:21:22.423Z,16.80
2023-03-05T16:24:26.204Z,16.20
2023-03-05T16:27:29.696Z,15.95
2023-03-05T16:30:35.948Z,18.70
2023-03-05T16:33:39.128Z,19.73
2023-03-05T16:36:48.427Z,17.40
2023-03-05T16:39:52.409Z,20.40
2023-03-05T16:42:55.558Z,14.57
2023-03-05T16:45:58.602Z,15.13
2023-03-05T16:49:01.654Z,24.33
2023-03-05T16:52:16.429Z,23.15
2023-03-05T16:55:21.718Z,52.67
2023-03-05T16:58:24.569Z,73.27
2023-03-05T17:01:30.350Z,46.23
2023-03-05T17:04:34.123Z,40.42
2023-03-05T17:07:36.993Z,39.22
2023-03-05T17:10:42.038Z,34.60
2023-03-05T17:13:48.200Z,17.83
2023-03-05T17:16:52.006Z,12.70
2023-03-05T17:19:55.052Z,15.15
2023-03-05T17:22:59.033Z,12.77
2023-03-05T17:26:13.747Z,10.95
2023-03-05T17:29:19.077Z,11.87
2023-03-05T17:32:22.613Z,15.00
2023-03-05T17:35:25.543Z,19.98
2023-03-05T17:38:28.632Z,25.40
2023-03-05T17:41:31.640Z,23.67
2023-03-05T17:44:34.632Z,67.07
2023-03-05T17:47:38.079Z,108.37
2023-03-05T17:50:41.591Z,169.48
2023-03-05T17:53:45.345Z,117.72
2023-03-05T17:56:48.478Z,92.95
2023-03-05T17:59:51.750Z,81.87
2023-03-05T18:02:58.184Z,83.20
2023-03-05T18:06:01.319Z,86.40
2023-03-05T18:09:07.356Z,87.72
2023-03-05T18:12:10.294Z,92.70
2023-03-05T18:15:15.794Z,89.90
2023-03-05T18:18:18.982Z,77.13
2023-03-05T18:21:23.585Z,75.60
2023-03-05T18:24:26.935Z,66.75
2023-03-05T18:27:31.234Z,64.47
2023-03-05T18:30:34.578Z,53.30
2023-03-05T18:33:38.946Z,48.43
2023-03-05T18:36:41.950Z,73.65
2023-03-05T18:39:44.756Z,61.13
2023-03-05T18:42:48.443Z,150.98
2023-03-05T18:45:54.043Z,224.50
2023-03-05T18:48:57.143Z,250.77
2023-03-05T18:52:00.412Z,248.90
2023-03-05T18:55:03.646Z,201.68
2023-03-05T18:58:06.515Z,150.65
2023-03-05T19:01:09.866Z,153.37
2023-03-05T19:04:13.426Z,139.60
2023-03-05T19:07:16.473Z,141.85
2023-03-05T19:10:19.378Z,131.73
2023-03-05T19:13:40.233Z,104.80
2023-03-05T19:16:44.303Z,85.67
2023-03-05T19:19:55.018Z,106.33
2023-03-05T19:22:58.066Z,120.45
2023-03-05T19:26:02.287Z,115.97
2023-03-05T19:29:07.748Z,149.77
2023-03-05T19:32:14.694Z,115.87
2023-03-05T19:35:18.273Z,112.53
2023-03-05T19:38:21.133Z,106.03
2023-03-05T19:41:26.365Z,104.20
2023-03-05T19:44:30.059Z,112.07
2023-03-05T19:47:33.086Z,124.60
2023-03-05T19:50:36.154Z,125.50
2023-03-05T19:53:40.134Z,132.55
2023-03-05T19:56:44.713Z,145.90
2023-03-05T19:59:50.946Z,140.20
2023-03-05T20:02:54.057Z,151.87
2023-03-05T20:05:57.210Z,161.50
2023-03-05T20:09:00.424Z,166.60
2023-03-05T20:12:05.711Z,172.63
2023-03-05T20:15:08.979Z,153.55
2023-03-05T20:18:12.176Z,141.43
2023-03-05T20:21:21.561Z,149.97
2023-03-05T20:24:26.339Z,172.30
2023-03-05T20:27:29.077Z,156.65
2023-03-05T20:30:32.164Z,136.98
2023-03-05T20:33:35.150Z,127.30
2023-03-05T20:36:39.354Z,111.90
2023-03-05T20:39:42.460Z,124.03
2023-03-05T20:42:45.732Z,108.22
2023-03-05T20:45:49.544Z,87.53
2023-03-05T20:48:56.615Z,80.63
2023-03-05T20:51:59.679Z,91.30
2023-03-05T20:55:03.861Z,88.93
2023-03-05T20:58:07.264Z,122.35
2023-03-05T21:01:10.463Z,133.30
2023-03-05T21:04:13.824Z,132.23
2023-03-05T21:07:16.744Z,119.27
2023-03-05T21:10:20.719Z,118.38
2023-03-05T21:13:25.557Z,109.30
2023-03-05T21:16:28.741Z,113.10
2023-03-05T21:19:33.796Z,101.73
2023-03-05T21:22:36.841Z,100.67
2023-03-05T21:25:40.045Z,103.75
2023-03-05T21:28:43.259Z,98.10
2023-03-05T21:31:46.580Z,90.47
2023-03-05T21:34:49.600Z,76.70
2023-03-05T21:37:52.765Z,63.13
2023-03-05T21:40:58.159Z,56.63
2023-03-05T21:44:04.254Z,48.38
2023-03-05T21:47:07.332Z,41.47
2023-03-05T21:50:14.218Z,35.90
2023-03-05T21:53:18.519Z,38.20
2023-03-05T21:56:28.261Z,34.97
2023-03-05T21:59:31.125Z,33.42
2023-03-05T22:02:33.887Z,36.10
2023-03-05T22:05:36.778Z,34.70
2023-03-05T22:08:39.914Z,35.63
2023-03-05T22:11:44.116Z,34.20
2023-03-05T22:14:46.932Z,37.63
2023-03-05T22:17:50.016Z,29.90
2023-03-05T22:20:53.476Z,27.00
2023-03-05T22:23:57.603Z,23.40
2023-03-05T22:27:02.048Z,27.33
2023-03-05T22:30:05.775Z,27.17
2023-03-05T22:33:08.554Z,31.13
2023-03-05T22:36:12.610Z,25.67
2023-03-05T22:39:15.398Z,28.37
2023-03-05T22:42:18.180Z,26.05
2023-03-05T22:45:21.038Z,23.98
2023-03-05T22:48:23.793Z,27.45
2023-03-05T22:51:26.687Z,19.90
2023-03-05T22:54:29.480Z,21.47
2023-03-05T22:57:33.399Z,20.95
2023-03-05T23:00:36.358Z,22.80
2023-03-05T23:03:39.978Z,22.85
2023-03-05T23:06:42.725Z,28.73
2023-03-05T23:09:50.378Z,27.53
2023-03-05T23:12:54.840Z,24.42
2023-03-05T23:15:57.699Z,22.58
2023-03-05T23:19:00.569Z,22.58
2023-03-05T23:22:04.847Z,23.33
2023-03-05T23:25:08.021Z,25.63
2023-03-05T23:28:10.760Z,20.30
2023-03-05T23:31:13.526Z,19.63
2023-03-05T23:34:16.391Z,24.40
2023-03-05T23:37:19.049Z,21.07
2023-03-05T23:40:27.848Z,21.60
2023-03-05T23:43:30.907Z,21.13
2023-03-05T23:46:33.771Z,21.73
2023-03-05T23:49:36.713Z,19.00
2023-03-05T23:52:39.579Z,19.40
2023-03-05T23:55:44.172Z,18.07
2023-03-05T23:58:46.956Z,18.10
